Time;durP1;ratioP1;P1;durP2;ratioP2;P2;SDS_P1;SDS_P2;PMS_P1;PMS_P2;Temp;Humidity;BMP_temperature;BMP_pressure;BME280_temperature;BME280_humidity;BME280_pressure;Samples;Min_cycle;Max_cycle;Signal;HPM_P1;HPM_P2
2023/06/20 00:01:39;;;;;;;8.23;4.75;;;;;;;;;;5054346;28;20090;-78
2023/06/20 00:04:05;;;;;;;10.52;4.60;;;;;;;;;;5042232;28;20036;-78
2023/06/20 00:06:31;;;;;;;9.65;4.25;;;;;;;;;;5066446;28;20039;-78
2023/06/20 00:08:58;;;;;;;6.55;4.50;;;;;;;;;;5053464;28;20035;-78
2023/06/20 00:11:24;;;;;;;8.60;4.60;;;;;;;;;;5048093;28;20021;-78
2023/06/20 00:13:50;;;;;;;5.75;4.22;;;;;;;;;;5065626;28;20053;-77
2023/06/20 00:16:20;;;;;;;11.55;5.45;;;;;;;;;;5070677;28;20563;-78
2023/06/20 00:18:53;;;;;;;14.00;4.93;;;;;;;;;;5074780;28;20107;-78
2023/06/20 00:21:20;;;;;;;7.40;4.13;;;;;;;;;;5073390;28;20021;-79
2023/06/20 00:23:46;;;;;;;6.28;4.70;;;;;;;;;;5071985;28;20047;-77
2023/06/20 00:26:12;;;;;;;8.65;4.32;;;;;;;;;;5072074;28;20029;-77
2023/06/20 00:28:38;;;;;;;6.85;4.55;;;;;;;;;;5070644;28;20103;-78
2023/06/20 00:31:04;;;;;;;6.60;4.15;;;;;;;;;;5072041;28;20051;-76
2023/06/20 00:33:30;;;;;;;8.65;4.55;;;;;;;;;;5055785;28;20037;-77
2023/06/20 00:35:57;;;;;;;5.93;4.07;;;;;;;;;;5076160;28;20024;-77
2023/06/20 00:38:23;;;;;;;6.75;4.40;;;;;;;;;;5071355;28;20033;-78
2023/06/20 00:40:49;;;;;;;7.05;4.50;;;;;;;;;;5075048;28;20020;-77
2023/06/20 00:43:15;;;;;;;7.40;4.40;;;;;;;;;;5071055;28;20029;-77
2023/06/20 00:45:41;;;;;;;5.72;4.55;;;;;;;;;;5074962;28;20028;-78
2023/06/20 00:48:08;;;;;;;6.80;4.25;;;;;;;;;;5050446;28;20038;-77
2023/06/20 00:50:34;;;;;;;8.90;4.90;;;;;;;;;;5057081;28;20025;-78
2023/06/20 00:53:04;;;;;;;11.80;4.35;;;;;;;;;;5072350;28;20036;-77
2023/06/20 00:55:31;;;;;;;7.60;4.50;;;;;;;;;;5081430;28;20039;-79
2023/06/20 00:57:58;;;;;;;6.35;3.95;;;;;;;;;;5072853;28;20103;-77
2023/06/20 01:00:25;;;;;;;9.13;4.50;;;;;;;;;;5061555;28;20056;-77
2023/06/20 01:02:54;;;;;;;10.75;4.80;;;;;;;;;;5072743;28;20090;-79
2023/06/20 01:05:26;;;;;;;5.15;4.25;;;;;;;;;;5072929;28;20766;-77
2023/06/20 01:07:59;;;;;;;6.85;4.60;;;;;;;;;;5068088;28;20028;-77
2023/06/20 01:10:35;;;;;;;9.40;4.80;;;;;;;;;;5073236;28;20373;-79
2023/06/20 01:13:24;;;;;;;7.10;4.55;;;;;;;;;;5070178;28;20119;-77
2023/06/20 01:15:50;;;;;;;7.55;4.75;;;;;;;;;;5017085;28;20036;-78
2023/06/20 01:18:35;;;;;;;7.88;5.05;;;;;;;;;;5070097;28;20059;-78
2023/06/20 01:21:07;;;;;;;7.97;4.82;;;;;;;;;;5071227;28;20025;-78
2023/06/20 01:23:35;;;;;;;7.72;4.60;;;;;;;;;;5076435;28;20033;-78
2023/06/20 01:26:02;;;;;;;9.93;5.00;;;;;;;;;;5072624;28;20504;-78
2023/06/20 01:28:35;;;;;;;8.77;4.75;;;;;;;;;;5075580;28;20062;-77
2023/06/20 01:31:06;;;;;;;7.03;4.38;;;;;;;;;;5051701;28;20438;-77
2023/06/20 01:33:36;;;;;;;7.65;4.40;;;;;;;;;;5073875;28;20485;-78
2023/06/20 01:36:02;;;;;;;8.93;4.78;;;;;;;;;;5074281;28;20166;-77
2023/06/20 01:38:30;;;;;;;8.93;4.75;;;;;;;;;;5045289;28;20039;-78
2023/06/20 01:40:56;;;;;;;8.18;5.05;;;;;;;;;;5065246;28;20024;-77
2023/06/20 01:43:23;;;;;;;10.40;5.28;;;;;;;;;;5056898;28;20066;-77
2023/06/20 01:45:51;;;;;;;10.23;4.60;;;;;;;;;;5071716;28;20021;-78
2023/06/20 01:48:19;;;;;;;8.25;5.03;;;;;;;;;;5078638;28;20032;-77
2023/06/20 01:50:47;;;;;;;9.90;4.70;;;;;;;;;;5072816;28;20028;-78
2023/06/20 01:53:13;;;;;;;9.45;4.60;;;;;;;;;;5055700;28;20104;-80
2023/06/20 01:55:41;;;;;;;6.97;4.70;;;;;;;;;;5065258;28;20028;-78
2023/06/20 01:58:08;;;;;;;8.35;4.57;;;;;;;;;;5071486;28;20020;-79
2023/06/20 02:00:34;;;;;;;6.40;4.68;;;;;;;;;;5065830;28;20028;-78
2023/06/20 02:03:01;;;;;;;6.85;4.95;;;;;;;;;;5070112;28;20025;-77
2023/06/20 02:05:30;;;;;;;9.13;4.45;;;;;;;;;;5048597;28;20058;-77
2023/06/20 02:07:57;;;;;;;7.30;4.53;;;;;;;;;;5067671;28;20035;-77
2023/06/20 02:10:25;;;;;;;6.85;4.50;;;;;;;;;;5074486;28;20037;-77
2023/06/20 02:12:52;;;;;;;9.00;5.20;;;;;;;;;;5044007;28;20062;-77
2023/06/20 02:15:19;;;;;;;7.60;4.28;;;;;;;;;;5066314;28;20112;-77
2023/06/20 02:17:46;;;;;;;11.05;4.68;;;;;;;;;;5072878;28;20036;-77
2023/06/20 02:20:13;;;;;;;9.30;4.85;;;;;;;;;;5073010;28;20016;-77
2023/06/20 02:22:42;;;;;;;7.82;5.35;;;;;;;;;;5071400;28;20025;-77
2023/06/20 02:25:09;;;;;;;7.40;5.10;;;;;;;;;;5070699;28;20074;-77
2023/06/20 02:27:36;;;;;;;9.50;4.65;;;;;;;;;;5070892;28;20020;-78
2023/06/20 02:30:03;;;;;;;9.98;4.97;;;;;;;;;;5048470;28;20782;-78
2023/06/20 02:32:30;;;;;;;10.70;4.55;;;;;;;;;;5064485;28;20037;-77
2023/06/20 02:34:57;;;;;;;8.20;5.35;;;;;;;;;;5070061;28;20017;-77
2023/06/20 02:37:27;;;;;;;9.85;4.10;;;;;;;;;;5069607;28;20066;-77
2023/06/20 02:39:55;;;;;;;7.90;5.47;;;;;;;;;;5070476;28;20049;-78
2023/06/20 02:42:21;;;;;;;10.82;5.90;;;;;;;;;;5075079;28;20060;-81
2023/06/20 02:44:47;;;;;;;8.13;5.03;;;;;;;;;;5073642;28;20028;-77
2023/06/20 02:47:29;;;;;;;8.32;4.50;;;;;;;;;;5070496;28;20037;-78
2023/06/20 02:49:56;;;;;;;10.35;5.10;;;;;;;;;;5053456;28;20021;-78
2023/06/20 02:52:41;;;;;;;7.53;4.10;;;;;;;;;;5069602;28;20039;-78
2023/06/20 02:55:07;;;;;;;6.28;4.47;;;;;;;;;;5051333;28;20021;-78
2023/06/20 02:57:34;;;;;;;7.13;4.22;;;;;;;;;;5071972;28;20039;-77
2023/06/20 03:00:10;;;;;;;10.68;4.47;;;;;;;;;;5068274;28;20082;-77
2023/06/20 03:02:51;;;;;;;5.80;4.28;;;;;;;;;;5067783;28;20508;-79
2023/06/20 03:05:19;;;;;;;8.85;4.93;;;;;;;;;;5061816;28;20044;-78
2023/06/20 03:07:46;;;;;;;6.45;5.30;;;;;;;;;;5067683;28;20032;-78
2023/06/20 03:10:13;;;;;;;9.45;4.93;;;;;;;;;;5073705;28;20032;-79
2023/06/20 03:12:39;;;;;;;7.10;4.38;;;;;;;;;;5056932;28;20072;-78
2023/06/20 03:15:05;;;;;;;6.25;3.92;;;;;;;;;;5077212;28;20560;-77
2023/06/20 03:17:39;;;;;;;6.28;4.00;;;;;;;;;;5076539;28;20481;-78
2023/06/20 03:20:08;;;;;;;5.35;4.28;;;;;;;;;;5075024;28;20028;-78
2023/06/20 03:22:34;;;;;;;7.72;4.68;;;;;;;;;;5047562;28;20052;-78
2023/06/20 03:25:00;;;;;;;10.02;5.00;;;;;;;;;;5075710;28;20043;-78
2023/06/20 03:27:26;;;;;;;8.90;4.18;;;;;;;;;;5075914;28;20028;-78
2023/06/20 03:29:52;;;;;;;11.35;5.57;;;;;;;;;;5059456;28;20035;-78
2023/06/20 03:32:19;;;;;;;6.72;4.70;;;;;;;;;;5057206;28;20102;-77
2023/06/20 03:34:45;;;;;;;11.13;4.22;;;;;;;;;;5068626;28;20025;-79
2023/06/20 03:37:11;;;;;;;6.82;4.45;;;;;;;;;;5073672;28;20046;-78
2023/06/20 03:39:37;;;;;;;11.60;5.20;;;;;;;;;;5050881;28;20544;-77
2023/06/20 03:42:03;;;;;;;7.75;4.40;;;;;;;;;;5083677;28;20477;-78
2023/06/20 03:44:30;;;;;;;7.72;4.25;;;;;;;;;;5069274;28;20028;-78
2023/06/20 03:46:56;;;;;;;8.52;4.38;;;;;;;;;;5076540;28;20078;-77
2023/06/20 03:49:22;;;;;;;8.80;4.50;;;;;;;;;;5073893;28;20055;-78
2023/06/20 03:51:48;;;;;;;6.70;4.57;;;;;;;;;;5073235;28;20063;-79
2023/06/20 03:54:14;;;;;;;8.25;4.68;;;;;;;;;;5060248;28;20120;-78
2023/06/20 03:56:40;;;;;;;9.50;5.25;;;;;;;;;;5072392;28;20024;-79
2023/06/20 03:59:06;;;;;;;7.57;4.50;;;;;;;;;;5055550;28;20030;-78
2023/06/20 04:01:32;;;;;;;8.02;5.03;;;;;;;;;;5076351;28;20029;-77
2023/06/20 04:03:59;;;;;;;7.53;4.70;;;;;;;;;;5070369;28;20051;-78
2023/06/20 04:06:29;;;;;;;10.18;4.85;;;;;;;;;;5075143;28;20397;-79
2023/06/20 04:08:56;;;;;;;7.40;4.72;;;;;;;;;;5059210;28;20375;-77
2023/06/20 04:11:22;;;;;;;7.45;4.63;;;;;;;;;;5080070;28;20111;-79
2023/06/20 04:13:48;;;;;;;9.68;4.32;;;;;;;;;;5073942;28;20078;-78
2023/06/20 04:16:15;;;;;;;8.88;4.40;;;;;;;;;;5073387;28;20028;-77
2023/06/20 04:18:41;;;;;;;8.68;4.55;;;;;;;;;;5073543;28;20025;-77
2023/06/20 04:21:07;;;;;;;7.80;4.10;;;;;;;;;;5073703;28;20032;-81
2023/06/20 04:23:33;;;;;;;13.25;5.55;;;;;;;;;;5075076;28;20056;-77
2023/06/20 04:26:01;;;;;;;7.45;4.75;;;;;;;;;;5075178;28;20445;-79
2023/06/20 04:28:27;;;;;;;6.10;4.65;;;;;;;;;;5072816;28;20025;-78
2023/06/20 04:30:55;;;;;;;9.50;4.97;;;;;;;;;;5073228;28;20102;-78
2023/06/20 04:33:22;;;;;;;6.90;4.68;;;;;;;;;;5055368;28;20469;-77
2023/06/20 04:35:48;;;;;;;6.78;3.97;;;;;;;;;;5055725;28;20052;-78
2023/06/20 04:38:14;;;;;;;6.80;4.28;;;;;;;;;;5074127;28;20040;-78
2023/06/20 04:40:41;;;;;;;4.72;3.88;;;;;;;;;;5056460;28;20671;-78
2023/06/20 04:43:07;;;;;;;6.78;4.05;;;;;;;;;;5071109;28;20464;-78
2023/06/20 04:45:33;;;;;;;9.38;4.30;;;;;;;;;;5066573;28;20028;-78
2023/06/20 04:47:59;;;;;;;7.78;4.60;;;;;;;;;;5076358;28;20032;-77
2023/06/20 04:50:26;;;;;;;8.23;4.80;;;;;;;;;;5068917;28;20543;-77
2023/06/20 04:52:53;;;;;;;6.32;4.68;;;;;;;;;;5070385;28;20389;-78
2023/06/20 04:55:20;;;;;;;7.40;5.00;;;;;;;;;;5076433;28;20091;-78
2023/06/20 04:57:47;;;;;;;9.80;5.05;;;;;;;;;;5072066;28;20032;-77
2023/06/20 05:00:15;;;;;;;8.85;4.75;;;;;;;;;;5072299;28;20402;-77
2023/06/20 05:02:44;;;;;;;6.28;4.28;;;;;;;;;;5065062;28;20318;-78
2023/06/20 05:05:13;;;;;;;5.72;4.05;;;;;;;;;;5061162;28;20520;-77
2023/06/20 05:07:42;;;;;;;7.82;4.75;;;;;;;;;;5076200;28;20025;-77
2023/06/20 05:10:08;;;;;;;7.22;4.82;;;;;;;;;;5067427;28;20090;-77
2023/06/20 05:12:34;;;;;;;9.52;5.10;;;;;;;;;;5072039;28;20037;-78
2023/06/20 05:15:01;;;;;;;10.75;5.10;;;;;;;;;;5066561;28;20029;-79
2023/06/20 05:17:27;;;;;;;7.25;5.28;;;;;;;;;;5072917;28;20020;-78
2023/06/20 05:19:53;;;;;;;7.20;4.65;;;;;;;;;;5069071;28;20052;-78
2023/06/20 05:22:19;;;;;;;7.38;4.85;;;;;;;;;;5050613;28;20028;-79
2023/06/20 05:24:46;;;;;;;7.10;4.53;;;;;;;;;;5047483;28;20056;-85
2023/06/20 05:27:12;;;;;;;9.25;4.72;;;;;;;;;;5059986;28;20092;-82
2023/06/20 05:29:39;;;;;;;6.32;4.32;;;;;;;;;;5063252;28;20112;-85
2023/06/20 05:32:06;;;;;;;5.68;3.92;;;;;;;;;;5073651;28;20048;-84
2023/06/20 05:34:32;;;;;;;6.82;4.85;;;;;;;;;;5076111;28;20025;-84
2023/06/20 05:36:58;;;;;;;5.35;4.20;;;;;;;;;;5072518;28;20090;-82
2023/06/20 05:39:25;;;;;;;6.88;4.43;;;;;;;;;;5100787;22;20064;-78
2023/06/20 05:41:53;;;;;;;6.82;4.22;;;;;;;;;;5094245;28;20050;-78
2023/06/20 05:44:19;;;;;;;7.50;4.10;;;;;;;;;;5101951;28;20027;-80
2023/06/20 05:46:46;;;;;;;9.80;4.15;;;;;;;;;;5097545;28;20027;-77
2023/06/20 05:49:14;;;;;;;9.35;4.45;;;;;;;;;;5115181;27;20032;-77
2023/06/20 05:51:44;;;;;;;8.98;4.40;;;;;;;;;;5103201;28;20020;-78
2023/06/20 05:54:10;;;;;;;9.70;4.80;;;;;;;;;;5080991;28;20397;-77
2023/06/20 05:56:36;;;;;;;7.78;4.50;;;;;;;;;;5097156;28;20020;-77
2023/06/20 05:59:03;;;;;;;6.70;4.47;;;;;;;;;;5094716;28;20028;-78
2023/06/20 06:01:29;;;;;;;10.27;5.00;;;;;;;;;;5087958;28;20478;-77
2023/06/20 06:03:55;;;;;;;7.22;4.18;;;;;;;;;;5098766;28;20024;-79
2023/06/20 06:06:22;;;;;;;8.05;4.63;;;;;;;;;;5098223;28;20047;-78
2023/06/20 06:08:50;;;;;;;6.05;4.40;;;;;;;;;;5102513;28;20392;-78
2023/06/20 06:11:16;;;;;;;6.47;4.13;;;;;;;;;;5119436;28;20047;-79
2023/06/20 06:13:42;;;;;;;7.30;4.55;;;;;;;;;;5108110;28;20024;-77
2023/06/20 06:16:08;;;;;;;6.63;4.53;;;;;;;;;;5104553;28;20097;-78
2023/06/20 06:18:34;;;;;;;9.50;5.35;;;;;;;;;;5101503;28;20028;-79
2023/06/20 06:21:01;;;;;;;7.88;4.95;;;;;;;;;;5083984;28;20075;-80
2023/06/20 06:23:27;;;;;;;7.97;4.50;;;;;;;;;;5100142;28;20062;-77
2023/06/20 06:25:53;;;;;;;9.65;4.15;;;;;;;;;;5100155;28;20110;-79
2023/06/20 06:28:21;;;;;;;5.65;4.90;;;;;;;;;;5109326;28;20497;-78
2023/06/20 06:30:47;;;;;;;6.35;4.45;;;;;;;;;;5102837;28;20465;-79
2023/06/20 06:33:14;;;;;;;5.90;3.88;;;;;;;;;;5101088;28;20035;-78
2023/06/20 06:35:40;;;;;;;6.63;4.63;;;;;;;;;;5099814;28;20089;-77
2023/06/20 06:38:06;;;;;;;8.52;4.38;;;;;;;;;;5094142;28;20462;-78
2023/06/20 06:40:33;;;;;;;6.78;4.25;;;;;;;;;;5107985;28;20084;-77
2023/06/20 06:42:59;;;;;;;7.63;4.20;;;;;;;;;;5102018;28;20202;-77
2023/06/20 06:45:25;;;;;;;8.23;4.85;;;;;;;;;;5102651;28;20027;-78
2023/06/20 06:47:51;;;;;;;7.60;4.32;;;;;;;;;;5101720;28;20027;-77
2023/06/20 06:50:17;;;;;;;5.35;4.20;;;;;;;;;;5099543;28;20032;-78
2023/06/20 06:52:43;;;;;;;11.93;4.13;;;;;;;;;;5102145;28;20452;-77
2023/06/20 06:55:09;;;;;;;11.90;5.47;;;;;;;;;;5086567;28;20024;-78
2023/06/20 06:57:36;;;;;;;7.15;4.22;;;;;;;;;;5098915;28;20058;-78
2023/06/20 07:00:06;;;;;;;8.10;4.00;;;;;;;;;;5093111;28;20027;-77
2023/06/20 07:02:32;;;;;;;9.40;5.03;;;;;;;;;;5104001;28;20498;-77
2023/06/20 07:04:58;;;;;;;10.18;5.22;;;;;;;;;;5100274;28;20078;-78
2023/06/20 07:07:24;;;;;;;5.20;3.90;;;;;;;;;;5081536;28;20462;-77
2023/06/20 07:09:50;;;;;;;6.90;4.05;;;;;;;;;;5100130;28;20024;-78
2023/06/20 07:12:16;;;;;;;8.90;4.32;;;;;;;;;;5099489;28;20511;-77
2023/06/20 07:14:42;;;;;;;4.93;3.92;;;;;;;;;;5099513;28;20111;-78
2023/06/20 07:17:08;;;;;;;6.00;4.32;;;;;;;;;;5102360;28;20019;-77
2023/06/20 07:19:34;;;;;;;5.57;3.80;;;;;;;;;;5105680;28;20628;-79
2023/06/20 07:22:02;;;;;;;7.28;4.30;;;;;;;;;;5101857;28;20069;-78
2023/06/20 07:24:28;;;;;;;9.85;4.97;;;;;;;;;;5096079;28;20027;-78
2023/06/20 07:26:54;;;;;;;7.93;4.15;;;;;;;;;;5111718;28;20039;-78
2023/06/20 07:29:21;;;;;;;6.93;4.25;;;;;;;;;;5097431;28;20028;-78
2023/06/20 07:31:47;;;;;;;8.20;4.40;;;;;;;;;;5093525;28;20036;-78
2023/06/20 07:34:13;;;;;;;5.63;3.75;;;;;;;;;;5079794;28;20115;-78
2023/06/20 07:36:39;;;;;;;6.82;4.40;;;;;;;;;;5094334;28;20024;-78
2023/06/20 07:39:06;;;;;;;8.60;3.70;;;;;;;;;;5102272;28;20044;-78
2023/06/20 07:41:32;;;;;;;6.80;4.28;;;;;;;;;;5098934;28;20089;-79
2023/06/20 07:43:58;;;;;;;7.45;4.00;;;;;;;;;;5101769;28;20027;-77
2023/06/20 07:46:25;;;;;;;7.82;3.85;;;;;;;;;;5097193;28;20054;-77
2023/06/20 07:48:51;;;;;;;9.20;4.00;;;;;;;;;;5097655;28;20019;-78
2023/06/20 07:51:17;;;;;;;6.53;3.78;;;;;;;;;;5106081;28;20032;-78
2023/06/20 07:53:43;;;;;;;4.90;3.97;;;;;;;;;;5096163;28;20035;-78
2023/06/20 07:56:09;;;;;;;6.00;3.58;;;;;;;;;;5090538;28;20023;-78
2023/06/20 07:58:36;;;;;;;5.00;3.30;;;;;;;;;;5104857;28;20019;-78
2023/06/20 08:01:02;;;;;;;8.10;4.40;;;;;;;;;;5104321;28;20473;-79
2023/06/20 08:03:28;;;;;;;7.28;4.75;;;;;;;;;;5104292;28;20027;-78
2023/06/20 08:05:54;;;;;;;5.80;3.63;;;;;;;;;;5101002;28;20028;-78
2023/06/20 08:08:20;;;;;;;6.00;4.03;;;;;;;;;;5102140;28;20032;-78
2023/06/20 08:10:46;;;;;;;5.13;3.78;;;;;;;;;;5104028;28;20036;-78
2023/06/20 08:13:12;;;;;;;6.78;3.88;;;;;;;;;;5112076;28;20028;-78
2023/06/20 08:15:38;;;;;;;6.15;3.95;;;;;;;;;;5113416;28;20023;-78
2023/06/20 08:18:05;;;;;;;6.72;4.05;;;;;;;;;;5101624;28;20027;-78
2023/06/20 08:20:31;;;;;;;7.20;4.30;;;;;;;;;;5104320;28;20031;-78
2023/06/20 08:22:57;;;;;;;6.35;3.88;;;;;;;;;;5112200;28;20035;-78
2023/06/20 08:25:23;;;;;;;4.80;3.70;;;;;;;;;;5095485;28;20124;-78
2023/06/20 08:27:49;;;;;;;7.63;3.67;;;;;;;;;;5093434;28;20386;-78
2023/06/20 08:30:15;;;;;;;5.15;3.53;;;;;;;;;;5100738;28;20044;-78
2023/06/20 08:32:42;;;;;;;8.77;3.80;;;;;;;;;;5106642;28;20027;-79
2023/06/20 08:35:09;;;;;;;6.38;4.50;;;;;;;;;;5102633;28;20481;-78
2023/06/20 08:37:37;;;;;;;4.47;3.72;;;;;;;;;;5104095;28;20032;-77
2023/06/20 08:40:04;;;;;;;8.30;4.00;;;;;;;;;;5108335;28;20056;-78
2023/06/20 08:42:31;;;;;;;8.45;4.55;;;;;;;;;;5090838;28;20032;-78
2023/06/20 08:44:57;;;;;;;4.85;3.78;;;;;;;;;;5108873;28;20157;-78
2023/06/20 08:47:23;;;;;;;6.97;4.45;;;;;;;;;;5103000;28;20028;-78
2023/06/20 08:49:49;;;;;;;4.10;3.53;;;;;;;;;;5108686;28;20042;-83
2023/06/20 08:52:29;;;;;;;7.30;5.60;;;;;;;;;;5122599;28;20034;-81
2023/06/20 08:54:55;;;;;;;6.97;5.70;;;;;;;;;;5125981;28;20023;-79
2023/06/20 08:57:22;;;;;;;11.23;8.23;;;;;;;;;;5113682;28;20024;-78
2023/06/20 08:59:48;;;;;;;10.75;7.68;;;;;;;;;;5108743;28;20050;-78
2023/06/20 09:02:16;;;;;;;6.15;4.55;;;;;;;;;;5100113;28;20629;-81
2023/06/20 09:04:42;;;;;;;7.07;4.30;;;;;;;;;;5104545;28;20022;-78
2023/06/20 09:07:17;;;;;;;9.52;6.97;;;;;;;;;;5100900;28;20032;-79
2023/06/20 09:09:44;;;;;;;5.53;4.78;;;;;;;;;;5103775;28;20073;-78
2023/06/20 09:12:10;;;;;;;8.15;5.60;;;;;;;;;;5109565;27;20505;-79
2023/06/20 09:14:36;;;;;;;7.47;3.90;;;;;;;;;;5108675;28;20109;-79
2023/06/20 09:17:03;;;;;;;5.80;4.07;;;;;;;;;;5108122;28;20024;-80
2023/06/20 09:19:41;;;;;;;5.43;3.63;;;;;;;;;;5098638;28;20024;-78
2023/06/20 09:22:07;;;;;;;6.03;4.15;;;;;;;;;;5097362;28;20020;-78
2023/06/20 09:24:41;;;;;;;5.07;3.83;;;;;;;;;;5102584;28;20099;-79
2023/06/20 09:27:07;;;;;;;5.55;4.18;;;;;;;;;;5095963;28;20426;-81
2023/06/20 09:29:33;;;;;;;8.57;3.88;;;;;;;;;;5098885;28;20027;-78
2023/06/20 09:31:59;;;;;;;4.10;3.33;;;;;;;;;;5103392;28;20023;-78
2023/06/20 09:34:25;;;;;;;5.72;3.20;;;;;;;;;;5106904;28;20428;-78
2023/06/20 09:36:52;;;;;;;4.60;3.28;;;;;;;;;;5101170;28;20024;-79
2023/06/20 09:39:21;;;;;;;11.85;4.40;;;;;;;;;;5097362;28;20048;-78
2023/06/20 09:41:49;;;;;;;15.82;4.75;;;;;;;;;;5098939;28;20024;-78
2023/06/20 09:44:16;;;;;;;7.28;4.03;;;;;;;;;;5090876;28;20027;-77
2023/06/20 09:46:42;;;;;;;8.50;3.63;;;;;;;;;;5081924;28;20024;-78
2023/06/20 09:49:08;;;;;;;5.53;3.20;;;;;;;;;;5099763;28;20042;-78
2023/06/20 09:51:38;;;;;;;5.88;3.50;;;;;;;;;;5111246;28;20042;-81
2023/06/20 09:54:05;;;;;;;6.13;3.92;;;;;;;;;;5108160;28;20499;-80
2023/06/20 09:56:36;;;;;;;6.00;3.60;;;;;;;;;;5098996;28;20076;-80
2023/06/20 09:59:03;;;;;;;4.93;3.55;;;;;;;;;;5107065;28;20004;-79
2023/06/20 10:01:30;;;;;;;6.13;3.20;;;;;;;;;;5100896;28;20028;-81
2023/06/20 10:03:57;;;;;;;6.50;3.13;;;;;;;;;;5105849;28;20065;-79
2023/06/20 10:06:23;;;;;;;6.35;3.38;;;;;;;;;;5107137;28;20501;-79
2023/06/20 10:08:50;;;;;;;5.07;3.33;;;;;;;;;;5107944;28;20082;-79
2023/06/20 10:11:16;;;;;;;4.75;3.20;;;;;;;;;;5091189;28;20028;-78
2023/06/20 10:13:42;;;;;;;5.50;3.10;;;;;;;;;;5105199;28;20021;-78
2023/06/20 10:16:09;;;;;;;5.20;3.30;;;;;;;;;;5105507;28;20028;-77
2023/06/20 10:18:36;;;;;;;9.45;4.68;;;;;;;;;;5076131;28;20020;-79
2023/06/20 10:21:05;;;;;;;5.57;2.92;;;;;;;;;;5095495;28;20030;-78
2023/06/20 10:23:31;;;;;;;3.53;2.63;;;;;;;;;;5101155;28;20032;-79
2023/06/20 10:26:02;;;;;;;4.50;2.75;;;;;;;;;;5102465;28;20032;-80
2023/06/20 10:28:28;;;;;;;3.88;3.17;;;;;;;;;;5107614;28;20106;-80
2023/06/20 10:30:57;;;;;;;4.75;3.10;;;;;;;;;;5094641;28;20031;-78
2023/06/20 10:33:33;;;;;;;5.70;2.95;;;;;;;;;;5112452;28;20085;-81
2023/06/20 10:35:59;;;;;;;4.82;2.95;;;;;;;;;;5101065;28;20032;-79
2023/06/20 10:38:25;;;;;;;5.35;3.25;;;;;;;;;;5107558;28;20023;-79
2023/06/20 10:41:10;;;;;;;4.00;3.15;;;;;;;;;;5107455;28;20470;-80
2023/06/20 10:43:48;;;;;;;5.53;3.37;;;;;;;;;;5104828;28;20062;-80
2023/06/20 10:46:14;;;;;;;5.90;3.90;;;;;;;;;;5099948;28;20794;-80
2023/06/20 10:48:40;;;;;;;3.40;2.83;;;;;;;;;;5107409;28;20015;-80
2023/06/20 10:51:06;;;;;;;4.43;3.00;;;;;;;;;;5107216;28;20058;-80
2023/06/20 10:53:32;;;;;;;3.28;2.83;;;;;;;;;;5095077;28;20028;-80
2023/06/20 10:55:58;;;;;;;4.85;3.25;;;;;;;;;;5107947;28;20076;-81
2023/06/20 10:58:25;;;;;;;3.38;2.72;;;;;;;;;;5097836;28;20027;-80
2023/06/20 11:00:51;;;;;;;3.58;2.90;;;;;;;;;;5099218;28;20083;-79
2023/06/20 11:03:17;;;;;;;2.97;2.58;;;;;;;;;;5106180;28;20024;-81
2023/06/20 11:05:48;;;;;;;4.47;2.53;;;;;;;;;;5103770;28;20032;-79
2023/06/20 11:08:21;;;;;;;2.92;2.60;;;;;;;;;;5107787;28;20031;-81
2023/06/20 11:10:48;;;;;;;3.17;2.78;;;;;;;;;;5105063;28;20111;-81
2023/06/20 11:13:14;;;;;;;3.67;2.40;;;;;;;;;;5103470;28;20120;-79
2023/06/20 11:15:40;;;;;;;3.20;2.40;;;;;;;;;;5099489;28;20028;-79
2023/06/20 11:18:07;;;;;;;3.65;2.70;;;;;;;;;;5077077;28;20024;-79
2023/06/20 11:20:39;;;;;;;4.43;2.80;;;;;;;;;;5102758;28;20028;-79
2023/06/20 11:23:05;;;;;;;4.13;2.85;;;;;;;;;;5098503;28;20008;-78
2023/06/20 11:25:32;;;;;;;6.00;2.83;;;;;;;;;;5106170;28;20032;-79
2023/06/20 11:28:06;;;;;;;3.95;2.90;;;;;;;;;;5099621;28;20077;-80
2023/06/20 11:30:33;;;;;;;3.85;2.80;;;;;;;;;;5112333;28;20027;-78
2023/06/20 11:32:59;;;;;;;3.33;2.83;;;;;;;;;;5110255;28;20024;-80
2023/06/20 11:35:38;;;;;;;5.18;2.90;;;;;;;;;;5107155;28;20028;-79
2023/06/20 11:38:04;;;;;;;4.13;2.50;;;;;;;;;;5110958;28;20766;-79
2023/06/20 11:40:30;;;;;;;3.72;2.90;;;;;;;;;;5109095;28;20118;-80
2023/06/20 11:42:56;;;;;;;3.67;2.35;;;;;;;;;;5107546;28;20031;-80
2023/06/20 11:45:26;;;;;;;4.70;2.97;;;;;;;;;;5100373;28;20027;-80
2023/06/20 11:48:08;;;;;;;9.05;3.92;;;;;;;;;;5103362;28;20031;-79
2023/06/20 11:50:34;;;;;;;8.30;3.70;;;;;;;;;;5102419;28;20478;-80
2023/06/20 11:53:02;;;;;;;7.85;3.63;;;;;;;;;;5112482;28;20047;-78
2023/06/20 11:55:47;;;;;;;5.65;3.17;;;;;;;;;;5105900;28;20020;-78
2023/06/20 11:58:14;;;;;;;6.65;3.40;;;;;;;;;;5101292;28;20020;-78
2023/06/20 12:00:40;;;;;;;5.47;2.90;;;;;;;;;;5094664;28;20028;-80
2023/06/20 12:03:13;;;;;;;3.35;2.67;;;;;;;;;;5111634;28;20084;-81
2023/06/20 12:05:40;;;;;;;3.95;2.92;;;;;;;;;;5116075;28;20016;-81
2023/06/20 12:08:06;;;;;;;3.85;3.22;;;;;;;;;;5119246;28;20027;-81
2023/06/20 12:10:34;;;;;;;6.65;3.47;;;;;;;;;;5129489;28;20035;-80
2023/06/20 12:13:06;;;;;;;6.13;3.30;;;;;;;;;;5125419;28;20027;-81
2023/06/20 12:15:32;;;;;;;5.00;3.00;;;;;;;;;;5119922;28;20027;-81
2023/06/20 12:17:58;;;;;;;4.10;2.97;;;;;;;;;;5115045;28;20043;-79
2023/06/20 12:20:24;;;;;;;4.55;3.17;;;;;;;;;;5090641;28;20085;-79
2023/06/20 12:22:50;;;;;;;4.90;2.88;;;;;;;;;;5095071;28;20015;-79
2023/06/20 12:25:16;;;;;;;4.30;2.80;;;;;;;;;;5098589;28;20092;-80
2023/06/20 12:27:43;;;;;;;4.55;2.63;;;;;;;;;;5116859;28;20038;-79
2023/06/20 12:30:09;;;;;;;3.58;3.05;;;;;;;;;;5106444;28;20082;-78
2023/06/20 12:32:35;;;;;;;3.20;2.65;;;;;;;;;;5112326;28;20050;-78
2023/06/20 12:35:07;;;;;;;3.85;2.65;;;;;;;;;;5103787;28;20032;-78
2023/06/20 12:37:33;;;;;;;3.50;2.80;;;;;;;;;;5095684;28;20401;-79
2023/06/20 12:39:59;;;;;;;3.95;2.70;;;;;;;;;;5102273;28;20044;-79
2023/06/20 12:42:25;;;;;;;3.00;2.70;;;;;;;;;;5103182;28;20016;-84
2023/06/20 12:44:53;;;;;;;6.75;2.40;;;;;;;;;;5092468;28;20019;-81
2023/06/20 12:47:19;;;;;;;3.63;2.83;;;;;;;;;;5097820;28;20035;-80
2023/06/20 12:49:46;;;;;;;3.88;2.40;;;;;;;;;;5109818;28;20036;-79
2023/06/20 12:52:12;;;;;;;3.25;2.63;;;;;;;;;;5102108;28;20036;-80
2023/06/20 12:54:38;;;;;;;4.07;3.58;;;;;;;;;;5106379;28;20113;-78
2023/06/20 12:57:04;;;;;;;3.35;2.42;;;;;;;;;;5109912;28;20027;-79
2023/06/20 12:59:30;;;;;;;4.82;2.72;;;;;;;;;;5101340;28;20084;-78
2023/06/20 13:01:56;;;;;;;5.28;2.78;;;;;;;;;;5100570;28;20467;-79
2023/06/20 13:04:22;;;;;;;7.55;3.05;;;;;;;;;;5104914;28;20043;-80
2023/06/20 13:06:49;;;;;;;5.93;3.50;;;;;;;;;;5111560;28;20028;-80
2023/06/20 13:09:15;;;;;;;5.00;3.20;;;;;;;;;;5104411;28;20063;-79
2023/06/20 13:11:43;;;;;;;4.18;2.80;;;;;;;;;;5095890;28;20055;-79
2023/06/20 13:14:09;;;;;;;5.00;2.70;;;;;;;;;;5103337;28;20031;-78
2023/06/20 13:16:35;;;;;;;5.28;3.15;;;;;;;;;;5103953;28;20211;-78
2023/06/20 13:19:01;;;;;;;4.22;2.85;;;;;;;;;;5103736;28;20015;-78
2023/06/20 13:21:29;;;;;;;3.63;2.40;;;;;;;;;;5105719;28;20020;-77
2023/06/20 13:23:55;;;;;;;5.55;2.75;;;;;;;;;;5102545;28;20035;-78
2023/06/20 13:26:21;;;;;;;3.92;2.90;;;;;;;;;;5096492;28;20143;-78
2023/06/20 13:28:47;;;;;;;6.55;2.90;;;;;;;;;;5103094;28;20047;-80
2023/06/20 13:31:13;;;;;;;5.22;3.10;;;;;;;;;;5098309;28;20032;-78
2023/06/20 13:33:39;;;;;;;5.60;3.10;;;;;;;;;;5103946;28;20055;-79
2023/06/20 13:36:10;;;;;;;3.97;2.90;;;;;;;;;;5097006;28;20095;-79
2023/06/20 13:38:38;;;;;;;4.18;2.50;;;;;;;;;;5084619;28;20075;-78
2023/06/20 13:41:04;;;;;;;3.72;2.60;;;;;;;;;;5101773;28;20425;-78
2023/06/20 13:43:30;;;;;;;4.40;2.67;;;;;;;;;;5108296;28;20077;-79
2023/06/20 13:45:56;;;;;;;3.88;2.70;;;;;;;;;;5104664;28;20026;-80
2023/06/20 13:48:22;;;;;;;3.47;2.38;;;;;;;;;;5104188;28;20036;-79
2023/06/20 13:50:48;;;;;;;3.30;2.53;;;;;;;;;;5106520;28;20062;-79
2023/06/20 13:53:15;;;;;;;5.25;3.35;;;;;;;;;;5098031;28;20046;-79
2023/06/20 13:55:41;;;;;;;4.50;2.60;;;;;;;;;;5098659;28;20546;-78
2023/06/20 13:58:08;;;;;;;4.70;2.97;;;;;;;;;;5102126;28;20095;-78
2023/06/20 14:00:38;;;;;;;4.60;3.25;;;;;;;;;;5100482;28;20035;-78
2023/06/20 14:03:06;;;;;;;4.40;3.00;;;;;;;;;;5096871;28;20319;-80
2023/06/20 14:05:33;;;;;;;6.22;3.28;;;;;;;;;;5106415;28;20028;-81
2023/06/20 14:07:59;;;;;;;7.25;3.25;;;;;;;;;;5095091;28;20047;-80
2023/06/20 14:10:25;;;;;;;5.82;2.83;;;;;;;;;;5099117;28;20035;-79
2023/06/20 14:12:52;;;;;;;6.28;2.70;;;;;;;;;;5095491;28;20023;-82
2023/06/20 14:15:18;;;;;;;4.10;2.85;;;;;;;;;;5088688;28;20024;-79
2023/06/20 14:17:44;;;;;;;3.35;2.60;;;;;;;;;;5102655;28;20020;-79
2023/06/20 14:20:11;;;;;;;4.88;2.83;;;;;;;;;;5096174;28;20020;-79
2023/06/20 14:22:38;;;;;;;3.35;2.67;;;;;;;;;;5096885;28;20512;-79
2023/06/20 14:25:04;;;;;;;4.53;3.00;;;;;;;;;;5105252;28;20780;-80
2023/06/20 14:27:30;;;;;;;4.00;2.80;;;;;;;;;;5099005;28;20030;-79
2023/06/20 14:29:57;;;;;;;3.67;2.40;;;;;;;;;;5087724;28;20051;-80
2023/06/20 14:32:23;;;;;;;3.38;2.70;;;;;;;;;;5085597;28;20651;-80
2023/06/20 14:34:49;;;;;;;3.95;2.40;;;;;;;;;;5086313;28;20131;-79
2023/06/20 14:37:16;;;;;;;5.60;3.00;;;;;;;;;;5089193;28;20115;-79
2023/06/20 14:39:42;;;;;;;4.00;2.83;;;;;;;;;;5083325;28;20032;-79
2023/06/20 14:42:08;;;;;;;3.55;2.67;;;;;;;;;;5091907;28;20486;-80
2023/06/20 14:44:34;;;;;;;4.57;2.65;;;;;;;;;;5092101;28;20558;-80